Time;durP1;ratioP1;P1;durP2;ratioP2;P2;SDS_P1;SDS_P2;PMS_P1;PMS_P2;Temp;Humidity;BMP_temperature;BMP_pressure;BME280_temperature;BME280_humidity;BME280_pressure;Samples;Min_cycle;Max_cycle;Signal;HPM_P1;HPM_P2
2023/01/24 00:01:33;;;;;;;61.60;23.20;;;1.80;99.90;;;;;;4445138;28;658762;-65
2023/01/24 00:04:20;;;;;;;55.03;21.53;;;1.80;99.90;;;;;;4424328;28;658377;-65
2023/01/24 00:07:08;;;;;;;53.43;20.97;;;1.80;99.90;;;;;;4435325;28;658936;-64
2023/01/24 00:09:57;;;;;;;58.15;22.00;;;1.80;99.90;;;;;;4429381;28;658190;-66
2023/01/24 00:12:44;;;;;;;61.13;22.70;;;1.80;99.90;;;;;;4441661;28;657578;-64
2023/01/24 00:15:31;;;;;;;56.30;21.90;;;1.80;99.90;;;;;;4420881;28;657854;-65
2023/01/24 00:18:18;;;;;;;57.67;22.75;;;1.80;99.90;;;;;;4435809;28;658668;-67
2023/01/24 00:21:08;;;;;;;64.97;24.37;;;1.80;99.90;;;;;;4417152;28;657775;-64
2023/01/24 00:23:56;;;;;;;58.13;23.67;;;1.80;99.90;;;;;;4426513;28;657542;-65
2023/01/24 00:26:44;;;;;;;60.80;23.50;;;1.80;99.90;;;;;;4442609;28;657351;-64
2023/01/24 00:29:32;;;;;;;57.50;22.67;;;1.80;99.90;;;;;;4418887;28;657909;-64
2023/01/24 00:32:19;;;;;;;49.47;20.40;;;1.80;99.90;;;;;;4441597;28;657373;-66
2023/01/24 00:35:07;;;;;;;51.17;20.87;;;1.80;99.90;;;;;;4420934;28;658239;-64
2023/01/24 00:37:54;;;;;;;54.60;22.20;;;1.80;99.90;;;;;;4443322;28;657865;-64
2023/01/24 00:40:41;;;;;;;55.63;24.10;;;1.80;99.90;;;;;;4428901;28;658406;-65
2023/01/24 00:43:30;;;;;;;52.22;22.67;;;1.80;99.90;;;;;;4437555;28;658297;-65
2023/01/24 00:46:17;;;;;;;51.57;21.77;;;1.80;99.90;;;;;;4418302;28;659330;-64
2023/01/24 00:49:04;;;;;;;44.23;19.97;;;1.80;99.90;;;;;;4435823;28;657383;-64
2023/01/24 00:51:51;;;;;;;47.70;19.87;;;1.80;99.90;;;;;;4416988;28;657817;-65
2023/01/24 00:54:39;;;;;;;59.77;22.57;;;1.80;99.90;;;;;;4436411;28;658290;-64
2023/01/24 00:57:26;;;;;;;53.67;21.63;;;1.80;99.90;;;;;;4418111;28;657470;-64
2023/01/24 01:00:15;;;;;;;56.90;22.10;;;1.80;99.90;;;;;;4441512;28;658827;-64
2023/01/24 01:03:02;;;;;;;56.10;22.47;;;1.80;99.90;;;;;;4422834;28;657642;-64
2023/01/24 01:05:49;;;;;;;57.67;22.47;;;1.80;99.90;;;;;;4435723;28;657503;-64
2023/01/24 01:08:37;;;;;;;46.57;20.00;;;1.80;99.90;;;;;;4417186;28;658930;-65
2023/01/24 01:11:24;;;;;;;43.00;18.60;;;1.80;99.90;;;;;;4439355;28;657809;-64
2023/01/24 01:14:12;;;;;;;48.80;20.30;;;1.80;99.90;;;;;;4419063;28;657914;-64
2023/01/24 01:17:00;;;;;;;52.87;21.33;;;1.80;99.90;;;;;;4439406;28;658873;-65
2023/01/24 01:19:51;;;;;;;51.33;20.30;;;1.80;99.90;;;;;;4413187;28;657949;-66
2023/01/24 01:22:38;;;;;;;51.90;20.60;;;1.80;99.90;;;;;;4414096;28;658235;-64
2023/01/24 01:25:25;;;;;;;49.33;20.00;;;1.80;99.90;;;;;;4418981;28;657705;-65
2023/01/24 01:28:12;;;;;;;47.63;19.37;;;1.80;99.90;;;;;;4440831;28;658203;-64
2023/01/24 01:31:00;;;;;;;61.67;19.30;;;1.80;99.90;;;;;;4442397;28;657712;-67
2023/01/24 01:33:49;;;;;;;49.07;19.87;;;1.90;99.90;;;;;;4439233;28;657348;-64
2023/01/24 01:36:36;;;;;;;45.97;19.20;;;1.90;99.90;;;;;;4417477;28;657425;-65
2023/01/24 01:39:23;;;;;;;56.67;22.48;;;1.80;99.90;;;;;;4435305;28;658790;-65
2023/01/24 01:42:10;;;;;;;53.33;21.43;;;1.90;99.90;;;;;;4419393;28;657663;-65
2023/01/24 01:45:13;;;;;;;55.00;22.53;;;1.80;99.90;;;;;;4439066;28;658834;-65
2023/01/24 01:48:00;;;;;;;49.42;19.15;;;1.80;99.90;;;;;;4399214;28;658088;-67
2023/01/24 01:50:54;;;;;;;46.80;18.93;;;1.80;99.90;;;;;;4436149;28;658280;-66
2023/01/24 01:53:43;;;;;;;46.53;18.57;;;1.80;99.90;;;;;;4420751;28;658437;-64
2023/01/24 01:56:32;;;;;;;46.30;17.77;;;1.80;99.90;;;;;;4431629;28;657768;-67
2023/01/24 01:59:22;;;;;;;45.97;18.30;;;1.80;99.90;;;;;;4432350;28;658717;-67
2023/01/24 02:02:09;;;;;;;63.57;23.30;;;1.80;99.90;;;;;;4442063;28;657520;-65
2023/01/24 02:04:58;;;;;;;48.28;20.05;;;1.80;99.90;;;;;;4421906;28;657281;-65
2023/01/24 02:07:49;;;;;;;48.30;17.80;;;1.80;99.90;;;;;;4422995;28;658235;-66
2023/01/24 02:13:43;;;;;;;44.47;17.23;;;1.80;99.90;;;;;;4394176;28;658393;-65
2023/01/24 02:16:29;;;;;;;42.57;17.83;;;1.80;99.90;;;;;;4404521;28;657269;-65
2023/01/24 02:19:23;;;;;;;40.13;15.80;;;1.80;99.90;;;;;;4443897;28;658475;-64
2023/01/24 02:22:15;;;;;;;41.40;16.50;;;1.80;99.90;;;;;;4393341;28;658250;-66
2023/01/24 02:25:07;;;;;;;39.50;16.00;;;1.80;99.90;;;;;;4416205;28;657982;-64
2023/01/24 02:27:56;;;;;;;39.43;16.47;;;1.80;99.90;;;;;;4416879;28;657882;-64
2023/01/24 02:30:43;;;;;;;37.90;15.80;;;1.80;99.90;;;;;;4417454;28;657273;-66
2023/01/24 02:33:30;;;;;;;39.90;16.83;;;1.80;99.90;;;;;;4432123;28;657474;-66
2023/01/24 02:36:22;;;;;;;35.63;15.73;;;1.80;99.90;;;;;;4438186;28;659180;-65
2023/01/24 02:39:11;;;;;;;38.80;16.37;;;1.80;99.90;;;;;;4441312;28;657606;-64
2023/01/24 02:42:01;;;;;;;35.63;16.23;;;1.80;99.90;;;;;;4418947;28;659223;-66
2023/01/24 02:44:52;;;;;;;33.67;13.83;;;1.80;99.90;;;;;;4417424;28;657769;-65
2023/01/24 02:47:42;;;;;;;31.20;14.10;;;1.80;99.90;;;;;;4423593;28;658124;-64
2023/01/24 02:53:28;;;;;;;30.57;13.17;;;1.80;99.90;;;;;;4416510;28;657266;-65
2023/01/24 02:53:39;;;;;;;31.48;14.30;;;1.80;99.90;;;;;;4417160;28;658791;-65
2023/01/24 02:59:30;;;;;;;31.30;14.20;;;1.80;99.90;;;;;;4403988;28;657763;-65
2023/01/24 03:02:19;;;;;;;37.43;13.57;;;1.70;99.90;;;;;;4399004;28;658323;-67
2023/01/24 03:05:07;;;;;;;35.83;15.07;;;1.70;99.90;;;;;;4284177;28;658007;-67
2023/01/24 03:07:54;;;;;;;33.23;14.50;;;1.70;99.90;;;;;;4332496;28;658074;-67
2023/01/24 03:10:41;;;;;;;36.17;15.77;;;1.80;99.90;;;;;;4347340;28;658330;-65
2023/01/24 03:35:09;;;;;;;34.33;14.20;;;1.80;99.90;;;;;;4396866;28;658072;-65
2023/01/24 03:41:01;;;;;;;27.57;11.63;;;1.70;99.90;;;;;;4399741;28;657498;-65
2023/01/24 03:43:48;;;;;;;25.60;11.37;;;1.70;99.90;;;;;;4454391;28;657151;-64
2023/01/24 03:46:39;;;;;;;23.13;10.43;;;1.70;99.90;;;;;;4429360;28;658095;-67
2023/01/24 03:52:32;;;;;;;24.40;10.83;;;1.80;99.90;;;;;;4424179;28;657421;-64
2023/01/24 03:55:20;;;;;;;24.30;11.20;;;1.80;99.90;;;;;;4439232;28;657404;-65
2023/01/24 03:58:12;;;;;;;28.15;11.80;;;1.80;99.90;;;;;;4422463;28;658180;-65
2023/01/24 04:01:03;;;;;;;26.50;11.03;;;1.80;99.90;;;;;;4420611;28;657717;-65
2023/01/24 04:03:50;;;;;;;23.97;10.63;;;1.80;99.90;;;;;;4405649;28;657324;-67
2023/01/24 04:06:37;;;;;;;21.60;10.43;;;1.80;99.90;;;;;;4455494;28;658734;-66
2023/01/24 04:09:27;;;;;;;26.40;11.90;;;1.80;99.90;;;;;;4443312;28;657901;-67
2023/01/24 04:12:14;;;;;;;27.23;11.67;;;1.80;99.90;;;;;;4445826;28;657825;-65
2023/01/24 04:15:01;;;;;;;28.50;11.90;;;1.80;99.90;;;;;;4423271;28;657687;-65
2023/01/24 04:17:48;;;;;;;23.50;10.40;;;1.70;99.90;;;;;;4443072;28;658277;-65
2023/01/24 04:20:36;;;;;;;23.07;9.90;;;1.70;99.90;;;;;;4422301;28;657367;-65
2023/01/24 04:23:24;;;;;;;18.43;9.50;;;1.70;99.90;;;;;;4444473;28;656764;-66
2023/01/24 04:26:12;;;;;;;726.95;26.77;;;1.70;99.90;;;;;;4422395;28;656768;-65
2023/01/24 04:28:59;;;;;;;18.73;9.20;;;1.80;99.90;;;;;;4439842;28;658262;-64
2023/01/24 04:31:47;;;;;;;22.33;10.27;;;1.80;99.90;;;;;;4431225;28;657436;-65
2023/01/24 04:34:34;;;;;;;23.17;10.07;;;1.80;99.90;;;;;;4438932;28;657789;-66
2023/01/24 04:37:22;;;;;;;24.13;11.37;;;1.80;99.90;;;;;;4418102;28;657580;-65
2023/01/24 04:40:10;;;;;;;24.33;12.10;;;1.70;99.90;;;;;;4441168;28;657588;-65
2023/01/24 04:42:59;;;;;;;24.77;10.43;;;1.70;99.90;;;;;;4431363;28;658625;-65
2023/01/24 04:45:46;;;;;;;27.60;10.97;;;1.80;99.90;;;;;;4423148;28;658024;-65
2023/01/24 04:48:33;;;;;;;19.53;9.13;;;1.80;99.90;;;;;;4442870;28;658384;-65
2023/01/24 04:51:20;;;;;;;25.80;10.17;;;1.80;99.90;;;;;;4424106;28;656663;-66
2023/01/24 04:54:07;;;;;;;20.40;9.03;;;1.70;99.90;;;;;;4446758;28;658637;-64
2023/01/24 04:56:55;;;;;;;20.83;8.67;;;1.70;99.90;;;;;;4444924;28;657257;-66
2023/01/24 04:59:44;;;;;;;20.17;8.77;;;1.80;99.90;;;;;;4447765;28;656665;-65
2023/01/24 05:02:32;;;;;;;24.97;9.93;;;1.80;99.90;;;;;;4422992;28;656415;-64
2023/01/24 05:05:19;;;;;;;25.07;10.33;;;1.80;99.90;;;;;;4443583;28;657123;-64
2023/01/24 05:08:06;;;;;;;17.43;7.60;;;1.80;99.90;;;;;;4426517;28;657418;-65
2023/01/24 05:10:54;;;;;;;20.77;8.80;;;1.70;99.90;;;;;;4441432;28;657547;-65
2023/01/24 05:13:41;;;;;;;23.13;9.20;;;1.70;99.90;;;;;;4422237;28;656932;-65
2023/01/24 05:16:29;;;;;;;22.83;10.33;;;1.70;99.90;;;;;;4441227;28;657243;-65
2023/01/24 05:19:17;;;;;;;19.07;9.03;;;1.70;99.90;;;;;;4424689;28;658363;-67
2023/01/24 05:22:04;;;;;;;23.87;10.03;;;1.70;99.90;;;;;;4443603;28;656882;-65
2023/01/24 05:24:51;;;;;;;26.10;9.37;;;1.70;99.90;;;;;;4423876;28;658143;-65
2023/01/24 05:27:38;;;;;;;26.93;12.10;;;1.70;99.90;;;;;;4441832;28;657267;-64
2023/01/24 05:30:26;;;;;;;29.67;11.27;;;1.80;99.90;;;;;;4420818;28;657785;-65
2023/01/24 05:33:14;;;;;;;26.07;10.40;;;1.70;99.90;;;;;;4455645;28;658762;-64
2023/01/24 05:36:02;;;;;;;30.17;11.00;;;1.70;99.90;;;;;;4419954;28;658506;-64
2023/01/24 05:38:49;;;;;;;33.47;11.50;;;1.70;99.90;;;;;;4446168;28;657976;-65
2023/01/24 05:41:37;;;;;;;25.20;9.80;;;1.70;99.90;;;;;;4424481;28;658264;-65
2023/01/24 05:44:24;;;;;;;48.77;13.50;;;1.70;99.90;;;;;;4438347;28;656787;-65
2023/01/24 05:47:11;;;;;;;59.90;16.23;;;1.70;99.90;;;;;;4421820;28;657736;-65
2023/01/24 05:50:00;;;;;;;47.40;15.03;;;1.70;99.90;;;;;;4446321;28;658762;-65
2023/01/24 05:52:47;;;;;;;32.37;12.30;;;1.70;99.90;;;;;;4417621;28;659405;-65
2023/01/24 05:55:34;;;;;;;554.50;29.27;;;1.70;99.90;;;;;;4444460;28;656910;-65
2023/01/24 05:58:21;;;;;;;35.17;17.47;;;1.70;99.90;;;;;;4416774;28;658643;-65
2023/01/24 06:01:09;;;;;;;23.93;11.50;;;1.70;99.90;;;;;;4439768;28;657334;-65
2023/01/24 06:03:56;;;;;;;27.50;11.97;;;1.70;99.90;;;;;;4430156;28;658196;-65
2023/01/24 06:06:45;;;;;;;26.73;10.83;;;1.70;99.90;;;;;;4438882;28;658323;-65
2023/01/24 06:09:32;;;;;;;21.13;10.73;;;1.70;99.90;;;;;;4412880;28;659261;-65
2023/01/24 06:12:19;;;;;;;23.05;11.15;;;1.70;99.90;;;;;;4445993;28;658353;-65
2023/01/24 06:15:08;;;;;;;22.67;10.20;;;1.70;99.90;;;;;;4416125;28;658060;-65
2023/01/24 06:17:55;;;;;;;29.83;13.93;;;1.70;99.90;;;;;;4432808;28;657593;-66
2023/01/24 06:20:43;;;;;;;21.17;10.43;;;1.70;99.90;;;;;;4441339;28;659676;-64
2023/01/24 06:23:32;;;;;;;45.93;14.87;;;1.70;99.90;;;;;;4414996;28;657593;-71
2023/01/24 06:26:21;;;;;;;27.03;11.67;;;1.70;99.90;;;;;;4433111;28;657485;-71
2023/01/24 06:29:09;;;;;;;17.73;9.40;;;1.70;99.90;;;;;;4446241;28;658220;-70
2023/01/24 06:32:02;;;;;;;23.77;10.43;;;1.70;99.90;;;;;;4416635;28;656972;-70
2023/01/24 06:35:07;;;;;;;30.60;11.33;;;1.60;99.90;;;;;;4414755;28;657655;-70
2023/01/24 06:37:54;;;;;;;78.50;16.53;;;1.60;99.90;;;;;;4421195;28;658057;-70
2023/01/24 06:40:44;;;;;;;122.47;27.37;;;1.70;99.90;;;;;;4415307;28;657781;-70
2023/01/24 06:43:32;;;;;;;107.57;29.83;;;1.70;99.90;;;;;;4413404;28;659187;-70
2023/01/24 06:46:19;;;;;;;37.53;14.57;;;1.70;99.90;;;;;;4440304;28;658571;-69
2023/01/24 06:49:06;;;;;;;26.67;9.80;;;1.70;99.90;;;;;;4420283;28;657814;-69
2023/01/24 06:51:53;;;;;;;33.73;11.47;;;1.70;99.90;;;;;;4446582;28;657713;-70
2023/01/24 06:54:41;;;;;;;33.63;11.83;;;1.80;99.90;;;;;;4422718;28;657503;-69
2023/01/24 06:57:29;;;;;;;54.60;24.00;;;1.80;99.90;;;;;;4436743;28;657943;-70
2023/01/24 07:00:17;;;;;;;75.43;25.97;;;1.80;99.90;;;;;;4416871;28;657486;-69
2023/01/24 07:03:07;;;;;;;27.67;10.67;;;1.80;99.90;;;;;;4435856;28;658427;-70
2023/01/24 07:05:54;;;;;;;48.40;12.37;;;1.80;99.90;;;;;;4452742;28;657355;-69
2023/01/24 07:08:41;;;;;;;52.93;21.20;;;1.80;99.90;;;;;;4423799;28;657445;-69
2023/01/24 07:11:28;;;;;;;48.60;17.40;;;1.80;99.90;;;;;;4443167;28;658603;-70
2023/01/24 07:14:17;;;;;;;77.83;18.13;;;1.80;99.90;;;;;;4422573;28;657919;-71
2023/01/24 07:17:05;;;;;;;52.33;14.63;;;1.80;99.90;;;;;;4437880;28;657284;-70
2023/01/24 07:19:52;;;;;;;43.43;12.17;;;1.80;99.90;;;;;;4421033;28;658424;-70
2023/01/24 07:22:41;;;;;;;78.70;18.67;;;1.80;99.90;;;;;;4440976;28;657780;-70
2023/01/24 07:25:28;;;;;;;81.60;18.00;;;1.80;99.90;;;;;;4445166;28;658718;-70
2023/01/24 07:28:16;;;;;;;47.63;15.50;;;1.80;99.90;;;;;;4422404;28;657574;-71
2023/01/24 07:31:05;;;;;;;46.17;13.77;;;1.80;99.90;;;;;;4447617;28;657469;-70
2023/01/24 07:33:52;;;;;;;66.77;17.10;;;1.80;99.90;;;;;;4420373;28;659346;-70
2023/01/24 07:36:39;;;;;;;73.70;16.67;;;1.80;99.90;;;;;;4444261;28;657420;-70
2023/01/24 07:39:28;;;;;;;75.07;17.87;;;1.80;99.90;;;;;;4412653;28;657670;-70
2023/01/24 07:42:15;;;;;;;62.77;19.20;;;1.80;99.90;;;;;;4420375;28;657647;-71
2023/01/24 07:45:03;;;;;;;72.17;19.10;;;1.80;99.90;;;;;;4435766;28;658899;-70
2023/01/24 07:47:55;;;;;;;93.25;23.92;;;1.90;99.90;;;;;;4429167;28;657783;-71
2023/01/24 07:50:42;;;;;;;126.83;34.50;;;1.90;99.90;;;;;;4424800;28;659346;-70
2023/01/24 07:53:29;;;;;;;68.70;24.10;;;1.90;99.90;;;;;;4441829;28;659474;-69
2023/01/24 07:56:17;;;;;;;91.87;24.70;;;2.00;99.90;;;;;;4417799;28;657869;-70
2023/01/24 07:59:04;;;;;;;64.50;17.70;;;2.10;99.90;;;;;;4447816;28;657080;-70
2023/01/24 08:01:51;;;;;;;42.27;14.83;;;2.00;99.90;;;;;;4422931;28;657627;-70
2023/01/24 08:04:40;;;;;;;57.20;14.57;;;2.10;99.90;;;;;;4442870;28;657722;-71
2023/01/24 08:07:27;;;;;;;40.80;15.37;;;2.10;99.90;;;;;;4418376;28;658119;-71
2023/01/24 08:10:14;;;;;;;41.43;17.30;;;2.10;99.90;;;;;;4433004;28;657488;-72
2023/01/24 08:13:02;;;;;;;39.50;16.13;;;2.20;99.90;;;;;;4421715;28;657603;-71
2023/01/24 08:15:49;;;;;;;43.00;15.37;;;2.20;99.90;;;;;;4442093;28;657346;-71
2023/01/24 08:18:37;;;;;;;39.13;13.60;;;2.20;99.90;;;;;;4420589;28;657775;-71
2023/01/24 08:21:27;;;;;;;48.83;13.43;;;2.20;99.90;;;;;;4446253;28;657571;-72
2023/01/24 08:24:14;;;;;;;44.67;15.47;;;2.20;99.90;;;;;;4442041;28;657616;-71
2023/01/24 08:27:02;;;;;;;47.27;15.10;;;2.20;99.90;;;;;;4417659;28;657441;-71
2023/01/24 08:29:49;;;;;;;71.33;21.30;;;2.20;99.90;;;;;;4446713;28;657495;-71
2023/01/24 08:32:36;;;;;;;45.10;14.87;;;2.20;99.90;;;;;;4420662;28;657252;-71
2023/01/24 08:35:23;;;;;;;56.15;23.25;;;2.20;99.90;;;;;;4443725;28;658828;-72
2023/01/24 08:38:12;;;;;;;64.90;16.23;;;2.20;99.90;;;;;;4417803;28;657692;-73
2023/01/24 08:40:59;;;;;;;65.13;13.93;;;2.20;99.90;;;;;;4437272;28;657452;-72
2023/01/24 08:43:46;;;;;;;68.97;16.87;;;2.20;99.90;;;;;;4420377;28;659085;-71
2023/01/24 08:46:34;;;;;;;194.13;17.87;;;2.20;99.90;;;;;;4440850;28;657431;-71
2023/01/24 08:49:21;;;;;;;46.10;14.47;;;2.30;99.90;;;;;;4413242;28;658465;-71
2023/01/24 08:52:08;;;;;;;92.43;14.70;;;2.30;99.90;;;;;;4432077;28;657999;-72
2023/01/24 08:54:57;;;;;;;70.17;15.07;;;2.30;99.90;;;;;;4414784;28;657773;-72
2023/01/24 08:57:44;;;;;;;77.77;14.03;;;2.30;99.90;;;;;;4402552;28;657387;-72
2023/01/24 09:00:32;;;;;;;83.67;18.37;;;2.30;99.90;;;;;;4292962;28;658689;-73
2023/01/24 09:03:19;;;;;;;111.20;18.13;;;2.30;99.90;;;;;;4306492;28;657357;-74
2023/01/24 09:06:06;;;;;;;71.10;17.05;;;2.30;99.90;;;;;;4359631;28;659102;-71
2023/01/24 09:08:54;;;;;;;82.23;17.83;;;2.40;99.90;;;;;;4436104;28;658307;-71
2023/01/24 09:11:43;;;;;;;92.95;21.98;;;2.40;99.90;;;;;;4418808;28;658054;-72
2023/01/24 09:14:30;;;;;;;64.03;16.87;;;2.30;99.90;;;;;;4428980;28;657213;-72
2023/01/24 09:17:17;;;;;;;126.63;17.93;;;2.30;99.90;;;;;;4439694;28;657507;-73
2023/01/24 09:20:06;;;;;;;204.97;35.23;;;2.30;99.90;;;;;;4432900;28;658863;-72
2023/01/24 09:22:53;;;;;;;229.00;32.53;;;2.30;99.90;;;;;;4445901;28;659593;-71
2023/01/24 09:25:40;;;;;;;97.53;25.60;;;2.40;99.90;;;;;;4415898;28;658714;-72
2023/01/24 09:28:29;;;;;;;76.87;20.70;;;2.40;99.90;;;;;;4434946;28;658226;-72
2023/01/24 09:31:18;;;;;;;98.10;27.63;;;2.40;99.90;;;;;;4416458;28;658199;-71
2023/01/24 09:34:05;;;;;;;100.03;20.03;;;2.40;99.90;;;;;;4430395;28;657379;-72
2023/01/24 09:36:53;;;;;;;104.60;19.70;;;2.40;99.90;;;;;;4436092;28;659593;-71
2023/01/24 09:39:40;;;;;;;75.77;15.13;;;2.40;99.90;;;;;;4430627;28;659554;-72
2023/01/24 09:42:31;;;;;;;85.97;16.27;;;2.40;99.90;;;;;;4425189;28;658676;-71
2023/01/24 09:45:21;;;;;;;82.50;16.30;;;2.40;99.90;;;;;;4409086;28;658599;-73
2023/01/24 09:48:13;;;;;;;52.73;15.10;;;2.40;99.90;;;;;;4416349;28;657844;-71
2023/01/24 09:51:02;;;;;;;50.43;14.17;;;2.50;99.90;;;;;;4398350;28;657850;-72
2023/01/24 09:53:52;;;;;;;58.73;16.23;;;2.50;99.90;;;;;;4437899;28;657290;-72
2023/01/24 09:56:41;;;;;;;63.20;16.50;;;2.60;99.90;;;;;;4414063;28;657608;-71
2023/01/24 09:59:34;;;;;;;41.63;15.17;;;2.60;99.90;;;;;;4412039;28;658463;-73
2023/01/24 10:02:24;;;;;;;40.77;12.70;;;2.70;99.90;;;;;;4418104;28;657767;-73
2023/01/24 10:05:14;;;;;;;32.03;13.50;;;2.60;99.90;;;;;;4419293;28;657834;-74
2023/01/24 10:08:12;;;;;;;36.33;13.30;;;2.60;99.90;;;;;;4420779;28;657311;-71
2023/01/24 10:11:05;;;;;;;46.87;15.30;;;2.60;99.90;;;;;;4417060;28;657475;-71
2023/01/24 10:14:20;;;;;;;39.83;14.70;;;2.60;99.90;;;;;;4412861;28;657996;-72
2023/01/24 10:17:35;;;;;;;43.50;13.80;;;2.60;99.90;;;;;;4406297;28;657504;-72
2023/01/24 10:20:37;;;;;;;52.93;15.30;;;2.60;99.90;;;;;;4393758;28;658383;-71
2023/01/24 10:23:26;;;;;;;43.83;16.03;;;2.60;99.90;;;;;;4409841;28;657564;-72
2023/01/24 10:26:18;;;;;;;41.93;11.10;;;2.70;99.90;;;;;;4408378;28;657709;-72
2023/01/24 10:29:11;;;;;;;59.47;13.50;;;2.60;99.90;;;;;;4393191;28;658192;-72
2023/01/24 10:32:00;;;;;;;78.70;23.40;;;2.60;99.90;;;;;;4417465;28;657974;-72
2023/01/24 10:34:49;;;;;;;51.93;13.13;;;2.60;99.90;;;;;;4402958;28;657989;-71
2023/01/24 10:37:39;;;;;;;42.00;12.03;;;2.60;99.90;;;;;;4415961;28;658669;-73
2023/01/24 10:40:26;;;;;;;39.87;12.93;;;2.50;99.90;;;;;;4418616;28;658001;-72
2023/01/24 10:43:13;;;;;;;35.40;12.03;;;2.40;99.90;;;;;;4437782;28;658727;-72
2023/01/24 10:46:10;;;;;;;66.43;21.47;;;2.50;99.90;;;;;;4425528;28;657425;-72
2023/01/24 10:48:58;;;;;;;49.87;14.00;;;2.50;99.90;;;;;;4417905;28;658241;-71
2023/01/24 10:52:14;;;;;;;45.03;14.37;;;2.50;99.90;;;;;;4413394;28;657961;-71
2023/01/24 10:55:02;;;;;;;84.10;33.73;;;2.50;99.90;;;;;;4365875;28;658503;-73
2023/01/24 10:57:50;;;;;;;92.93;37.97;;;2.40;99.90;;;;;;4440682;28;657716;-73
2023/01/24 11:00:41;;;;;;;53.67;22.83;;;2.50;99.90;;;;;;4438259;28;661376;-73
2023/01/24 11:03:29;;;;;;;81.87;24.03;;;2.50;99.90;;;;;;4416211;28;658627;-74
2023/01/24 11:06:29;;;;;;;51.87;19.10;;;2.50;99.90;;;;;;4417410;28;657365;-73
2023/01/24 11:09:20;;;;;;;44.40;15.27;;;2.50;99.90;;;;;;4418749;28;657316;-73
2023/01/24 11:12:13;;;;;;;47.33;20.17;;;2.40;99.90;;;;;;4424551;28;657979;-75
2023/01/24 11:15:00;;;;;;;46.40;16.03;;;2.40;99.90;;;;;;4404793;28;658629;-74
2023/01/24 11:17:47;;;;;;;59.17;17.40;;;2.40;99.90;;;;;;4432438;28;658796;-73
2023/01/24 11:20:36;;;;;;;38.83;16.47;;;2.50;99.90;;;;;;4436291;28;657449;-74
2023/01/24 11:23:24;;;;;;;47.10;17.30;;;2.60;99.90;;;;;;4441631;28;658191;-75
2023/01/24 11:26:24;;;;;;;46.13;17.27;;;2.60;99.90;;;;;;4412713;28;657998;-74
2023/01/24 11:29:16;;;;;;;48.27;17.17;;;2.60;99.90;;;;;;4391351;28;658200;-74
2023/01/24 11:32:22;;;;;;;38.03;13.10;;;2.60;99.90;;;;;;4413246;28;657571;-73
2023/01/24 11:35:10;;;;;;;36.60;13.93;;;2.60;99.90;;;;;;4414420;28;657926;-74
2023/01/24 11:38:16;;;;;;;38.10;15.10;;;2.60;99.90;;;;;;4420026;28;658885;-74
2023/01/24 11:41:07;;;;;;;44.43;15.90;;;2.50;99.90;;;;;;4415215;28;658396;-74
2023/01/24 11:44:20;;;;;;;36.83;14.87;;;2.50;99.90;;;;;;4439149;28;657896;-73
2023/01/24 11:47:09;;;;;;;35.93;13.03;;;2.50;99.90;;;;;;4415516;28;658750;-74
2023/01/24 11:50:17;;;;;;;45.33;19.63;;;2.50;99.90;;;;;;4418974;28;660130;-73
2023/01/24 11:53:12;;;;;;;51.53;15.40;;;2.50;99.90;;;;;;4420582;28;657429;-73
2023/01/24 11:56:04;;;;;;;43.17;17.13;;;2.50;99.90;;;;;;4426380;28;657366;-73
2023/01/24 11:58:58;;;;;;;41.17;16.17;;;2.50;99.90;;;;;;4412213;28;657583;-74
2023/01/24 12:01:51;;;;;;;24.98;10.27;;;2.50;99.90;;;;;;4389753;28;658305;-73
2023/01/24 12:05:05;;;;;;;27.23;10.70;;;2.40;99.90;;;;;;4420017;28;657450;-73
2023/01/24 12:07:57;;;;;;;38.30;12.53;;;2.50;99.90;;;;;;4407129;28;658043;-73
2023/01/24 12:10:51;;;;;;;41.67;14.70;;;2.50;99.90;;;;;;4433489;28;657233;-72
2023/01/24 12:13:47;;;;;;;51.97;17.17;;;2.40;99.90;;;;;;4412865;28;658553;-73
2023/01/24 12:16:42;;;;;;;52.00;17.03;;;2.40;99.90;;;;;;4412497;28;657332;-73
2023/01/24 12:19:39;;;;;;;27.83;12.57;;;2.50;99.90;;;;;;4432057;28;657067;-72
2023/01/24 12:22:28;;;;;;;54.50;19.43;;;2.40;99.90;;;;;;4419686;28;657564;-73
2023/01/24 12:25:23;;;;;;;62.67;22.07;;;2.40;99.90;;;;;;4428245;28;657698;-73
2023/01/24 12:28:13;;;;;;;98.22;32.08;;;2.50;99.90;;;;;;4420751;28;657367;-74
2023/01/24 12:31:01;;;;;;;49.40;20.67;;;2.50;99.90;;;;;;4426940;28;657907;-74
2023/01/24 12:33:52;;;;;;;48.07;21.73;;;2.50;99.90;;;;;;4452027;28;660414;-73
2023/01/24 12:36:41;;;;;;;42.83;21.03;;;2.40;99.90;;;;;;4424083;28;657841;-73
2023/01/24 12:39:31;;;;;;;32.97;16.53;;;2.40;99.90;;;;;;4423577;28;658530;-73
2023/01/24 12:42:20;;;;;;;80.43;29.10;;;2.40;99.90;;;;;;4406543;28;658494;-74
2023/01/24 12:45:26;;;;;;;31.77;11.93;;;2.40;99.90;;;;;;4421092;28;658671;-74
2023/01/24 12:48:17;;;;;;;28.07;12.50;;;2.40;99.90;;;;;;4415022;28;658023;-75
2023/01/24 12:51:08;;;;;;;31.87;13.03;;;2.40;99.90;;;;;;4417496;28;657637;-73
2023/01/24 12:54:03;;;;;;;27.00;13.03;;;2.40;99.90;;;;;;4397372;28;658341;-74
2023/01/24 12:56:53;;;;;;;31.23;10.57;;;2.40;99.90;;;;;;4401781;28;658434;-74
2023/01/24 12:59:41;;;;;;;24.73;10.60;;;2.30;99.90;;;;;;4413671;28;657832;-73
2023/01/24 13:02:50;;;;;;;39.87;15.53;;;2.30;99.90;;;;;;4429781;28;658415;-73
2023/01/24 13:05:43;;;;;;;31.67;13.30;;;2.20;99.90;;;;;;4388424;28;658329;-73
2023/01/24 13:08:37;;;;;;;40.37;13.17;;;2.20;99.90;;;;;;4395989;28;657676;-74
2023/01/24 13:11:28;;;;;;;31.17;11.40;;;2.20;99.90;;;;;;4420588;28;657890;-73
2023/01/24 13:14:19;;;;;;;37.43;12.97;;;2.10;99.90;;;;;;4403542;28;658173;-72
2023/01/24 13:17:20;;;;;;;40.93;14.17;;;2.20;99.90;;;;;;4419113;28;657798;-74
2023/01/24 13:20:22;;;;;;;36.40;12.57;;;2.10;99.90;;;;;;4381891;28;658941;-73
2023/01/24 13:23:31;;;;;;;39.43;13.33;;;2.10;99.90;;;;;;4398664;28;657598;-74
2023/01/24 13:26:44;;;;;;;47.80;15.07;;;2.00;99.90;;;;;;4389665;28;657709;-73
2023/01/24 13:29:51;;;;;;;24.80;10.33;;;2.00;99.90;;;;;;4397202;28;657243;-74
2023/01/24 13:32:39;;;;;;;79.10;22.20;;;2.00;99.90;;;;;;4396457;28;658349;-74
2023/01/24 13:35:26;;;;;;;56.03;18.67;;;2.00;99.90;;;;;;4404824;28;658174;-74
2023/01/24 13:38:17;;;;;;;46.63;16.33;;;2.00;99.90;;;;;;4420619;28;658365;-74
2023/01/24 13:41:05;;;;;;;60.72;18.17;;;1.90;99.90;;;;;;4386366;28;658117;-73
2023/01/24 13:43:58;;;;;;;75.73;23.63;;;1.80;99.90;;;;;;4392021;28;658751;-74
2023/01/24 13:47:04;;;;;;;94.00;29.33;;;1.80;99.90;;;;;;4381683;28;657253;-74
2023/01/24 13:50:14;;;;;;;49.57;18.80;;;1.80;99.90;;;;;;4398295;28;658078;-74
2023/01/24 13:53:01;;;;;;;25.20;10.87;;;1.90;99.90;;;;;;4401456;28;659415;-74
2023/01/24 13:56:02;;;;;;;28.93;11.77;;;1.90;99.90;;;;;;4425649;28;657664;-74
2023/01/24 13:58:51;;;;;;;29.20;12.47;;;1.90;99.90;;;;;;4415603;28;658059;-73
2023/01/24 14:01:46;;;;;;;24.90;9.57;;;1.80;99.90;;;;;;4423952;28;657988;-73
2023/01/24 14:04:39;;;;;;;62.33;19.10;;;1.80;99.90;;;;;;4397725;28;657481;-73
2023/01/24 14:07:28;;;;;;;31.87;11.20;;;1.80;99.90;;;;;;4399060;28;657793;-73
2023/01/24 14:10:15;;;;;;;47.25;14.80;;;1.80;99.90;;;;;;4401044;28;657733;-73
2023/01/24 14:13:03;;;;;;;55.20;19.93;;;1.70;99.90;;;;;;4415578;28;657850;-74
2023/01/24 14:15:50;;;;;;;44.37;16.93;;;1.70;99.90;;;;;;4410763;28;657131;-73
2023/01/24 14:18:44;;;;;;;52.63;18.53;;;1.70;99.90;;;;;;4420916;28;658064;-73
2023/01/24 14:21:33;;;;;;;39.17;16.23;;;1.70;99.90;;;;;;4405944;28;657381;-74
2023/01/24 14:24:23;;;;;;;26.13;11.20;;;1.70;99.90;;;;;;4419102;28;657847;-73
2023/01/24 14:27:17;;;;;;;33.20;14.03;;;1.70;99.90;;;;;;4432453;28;658448;-73
2023/01/24 14:30:30;;;;;;;43.03;14.80;;;1.70;99.90;;;;;;4417694;28;657988;-74
2023/01/24 14:33:42;;;;;;;45.53;16.00;;;1.60;99.90;;;;;;4412462;28;657925;-73
2023/01/24 14:36:33;;;;;;;51.33;18.30;;;1.60;99.90;;;;;;4436239;28;657539;-74
2023/01/24 14:39:22;;;;;;;69.00;27.07;;;1.60;99.90;;;;;;4424490;28;657625;-74
2023/01/24 14:42:13;;;;;;;51.57;22.70;;;1.50;99.90;;;;;;4444932;28;657387;-74
2023/01/24 14:45:00;;;;;;;55.13;23.87;;;1.50;99.90;;;;;;4382689;28;659130;-73
2023/01/24 14:47:48;;;;;;;814.37;49.43;;;1.50;99.90;;;;;;4442265;28;657963;-74
2023/01/24 14:50:36;;;;;;;80.47;32.03;;;1.50;99.90;;;;;;4432319;28;658756;-73
2023/01/24 14:53:26;;;;;;;68.13;27.40;;;1.50;99.90;;;;;;4447402;28;657901;-73
2023/01/24 14:56:14;;;;;;;46.27;21.07;;;1.50;99.90;;;;;;4413922;28;658242;-74
2023/01/24 14:59:11;;;;;;;55.67;23.20;;;1.40;99.90;;;;;;4414183;28;658649;-74